sensor_id;sensor_type;location;lat;lon;timestamp;pressure;altitude;pressure_sealevel;temperature;humidity
64687;BME280;51113;53.646;-113.674;2023-06-14T00:00:09;91973.34;;;31.69;22.48
64687;BME280;51113;53.646;-113.674;2023-06-14T00:02:39;91973.56;;;31.62;23.93
64687;BME280;51113;53.646;-113.674;2023-06-14T00:05:08;91975.28;;;31.56;23.72
64687;BME280;51113;53.646;-113.674;2023-06-14T00:07:38;91973.16;;;31.51;23.27
64687;BME280;51113;53.646;-113.674;2023-06-14T00:10:11;91968.09;;;31.53;23.67
64687;BME280;51113;53.646;-113.674;2023-06-14T00:12:41;91972.38;;;31.75;24.58
64687;BME280;51113;53.646;-113.674;2023-06-14T00:15:10;91963.75;;;31.80;23.69
64687;BME280;51113;53.646;-113.674;2023-06-14T00:17:39;91953.25;;;31.73;23.37
64687;BME280;51113;53.646;-113.674;2023-06-14T00:20:08;91955.63;;;31.93;23.81
64687;BME280;51113;53.646;-113.674;2023-06-14T00:22:38;91963.00;;;31.67;24.25
64687;BME280;51113;53.646;-113.674;2023-06-14T00:25:07;91960.38;;;31.55;24.03
64687;BME280;51113;53.646;-113.674;2023-06-14T00:27:54;91963.84;;;31.42;24.99
64687;BME280;51113;53.646;-113.674;2023-06-14T00:30:24;91959.47;;;31.23;24.78
64687;BME280;51113;53.646;-113.674;2023-06-14T00:32:53;91952.19;;;30.85;24.98
64687;BME280;51113;53.646;-113.674;2023-06-14T00:35:24;91948.44;;;30.70;25.69
64687;BME280;51113;53.646;-113.674;2023-06-14T00:37:53;91950.31;;;30.44;25.20
64687;BME280;51113;53.646;-113.674;2023-06-14T00:40:24;91943.53;;;30.27;26.46
64687;BME280;51113;53.646;-113.674;2023-06-14T00:42:53;91937.28;;;30.05;26.82
64687;BME280;51113;53.646;-113.674;2023-06-14T00:45:21;91939.97;;;29.88;26.64
64687;BME280;51113;53.646;-113.674;2023-06-14T00:47:51;91986.22;;;29.60;26.18
64687;BME280;51113;53.646;-113.674;2023-06-14T00:50:23;92011.88;;;29.09;26.95
64687;BME280;51113;53.646;-113.674;2023-06-14T00:52:52;91997.91;;;28.29;27.17
64687;BME280;51113;53.646;-113.674;2023-06-14T00:55:21;91974.25;;;27.21;30.16
64687;BME280;51113;53.646;-113.674;2023-06-14T00:57:50;91987.84;;;26.16;32.94
64687;BME280;51113;53.646;-113.674;2023-06-14T01:00:19;91993.81;;;25.52;35.71
64687;BME280;51113;53.646;-113.674;2023-06-14T01:02:49;92002.41;;;24.66;41.16
64687;BME280;51113;53.646;-113.674;2023-06-14T01:05:18;92029.66;;;23.72;43.09
64687;BME280;51113;53.646;-113.674;2023-06-14T01:08:11;92052.41;;;23.13;45.62
64687;BME280;51113;53.646;-113.674;2023-06-14T01:10:56;92059.56;;;22.95;45.73
64687;BME280;51113;53.646;-113.674;2023-06-14T01:16:02;92042.28;;;22.14;51.83
64687;BME280;51113;53.646;-113.674;2023-06-14T01:18:31;92028.38;;;21.55;55.45
64687;BME280;51113;53.646;-113.674;2023-06-14T01:21:00;92026.19;;;21.16;57.75
64687;BME280;51113;53.646;-113.674;2023-06-14T01:23:34;91986.88;;;20.60;59.20
64687;BME280;51113;53.646;-113.674;2023-06-14T01:26:02;91961.91;;;20.50;59.02
64687;BME280;51113;53.646;-113.674;2023-06-14T01:28:31;91945.84;;;20.29;61.29
64687;BME280;51113;53.646;-113.674;2023-06-14T01:31:02;91939.97;;;20.06;62.91
64687;BME280;51113;53.646;-113.674;2023-06-14T01:33:33;91965.84;;;19.96;64.29
64687;BME280;51113;53.646;-113.674;2023-06-14T01:36:05;91991.72;;;20.21;62.04
64687;BME280;51113;53.646;-113.674;2023-06-14T01:38:37;92022.00;;;20.00;64.90
64687;BME280;51113;53.646;-113.674;2023-06-14T01:41:06;92022.78;;;19.71;67.15
64687;BME280;51113;53.646;-113.674;2023-06-14T01:43:35;92016.50;;;19.53;70.00
64687;BME280;51113;53.646;-113.674;2023-06-14T01:46:05;92017.03;;;19.39;72.20
64687;BME280;51113;53.646;-113.674;2023-06-14T01:48:35;92031.34;;;19.15;72.78
64687;BME280;51113;53.646;-113.674;2023-06-14T01:51:04;92035.19;;;18.95;73.80
64687;BME280;51113;53.646;-113.674;2023-06-14T01:53:33;92016.22;;;18.86;74.91
64687;BME280;51113;53.646;-113.674;2023-06-14T01:56:02;92027.97;;;18.69;76.18
64687;BME280;51113;53.646;-113.674;2023-06-14T01:58:31;92048.91;;;18.62;76.63
64687;BME280;51113;53.646;-113.674;2023-06-14T02:01:01;92057.69;;;18.50;76.93
64687;BME280;51113;53.646;-113.674;2023-06-14T02:03:30;92084.47;;;18.36;77.22
64687;BME280;51113;53.646;-113.674;2023-06-14T02:05:59;92094.09;;;18.29;77.04
64687;BME280;51113;53.646;-113.674;2023-06-14T02:08:27;92125.63;;;18.10;77.23
64687;BME280;51113;53.646;-113.674;2023-06-14T02:10:56;92132.50;;;17.98;77.71
64687;BME280;51113;53.646;-113.674;2023-06-14T02:13:25;92128.38;;;17.97;78.00
64687;BME280;51113;53.646;-113.674;2023-06-14T02:15:54;92132.44;;;17.95;79.08
64687;BME280;51113;53.646;-113.674;2023-06-14T02:18:23;92144.84;;;17.79;79.49
64687;BME280;51113;53.646;-113.674;2023-06-14T02:20:52;92157.06;;;17.71;80.03
64687;BME280;51113;53.646;-113.674;2023-06-14T02:23:21;92176.53;;;17.70;79.08
64687;BME280;51113;53.646;-113.674;2023-06-14T02:25:49;92184.47;;;17.58;79.57
64687;BME280;51113;53.646;-113.674;2023-06-14T02:28:18;92204.47;;;17.62;78.87
64687;BME280;51113;53.646;-113.674;2023-06-14T02:30:47;92219.38;;;17.58;79.62
64687;BME280;51113;53.646;-113.674;2023-06-14T02:33:16;92219.78;;;17.60;79.59
64687;BME280;51113;53.646;-113.674;2023-06-14T02:35:45;92219.88;;;17.48;79.71
64687;BME280;51113;53.646;-113.674;2023-06-14T02:38:16;92243.84;;;17.47;80.18
64687;BME280;51113;53.646;-113.674;2023-06-14T02:40:45;92267.38;;;17.43;80.13
64687;BME280;51113;53.646;-113.674;2023-06-14T02:43:13;92276.69;;;17.40;79.92
64687;BME280;51113;53.646;-113.674;2023-06-14T02:45:43;92310.81;;;17.40;79.98
64687;BME280;51113;53.646;-113.674;2023-06-14T02:48:12;92325.69;;;17.36;80.54
64687;BME280;51113;53.646;-113.674;2023-06-14T02:50:41;92326.38;;;17.33;80.17
64687;BME280;51113;53.646;-113.674;2023-06-14T02:53:09;92314.16;;;17.25;81.08
64687;BME280;51113;53.646;-113.674;2023-06-14T02:55:40;92294.25;;;17.24;81.50
64687;BME280;51113;53.646;-113.674;2023-06-14T02:58:09;92287.91;;;17.25;81.80
64687;BME280;51113;53.646;-113.674;2023-06-14T03:00:37;92293.94;;;17.26;81.49
64687;BME280;51113;53.646;-113.674;2023-06-14T03:03:07;92271.97;;;17.18;81.02
64687;BME280;51113;53.646;-113.674;2023-06-14T03:05:47;92254.94;;;17.12;81.07
64687;BME280;51113;53.646;-113.674;2023-06-14T03:08:17;92257.38;;;17.05;81.18
64687;BME280;51113;53.646;-113.674;2023-06-14T03:10:47;92251.13;;;17.09;81.15
64687;BME280;51113;53.646;-113.674;2023-06-14T03:13:16;92264.03;;;17.15;80.85
64687;BME280;51113;53.646;-113.674;2023-06-14T03:15:45;92267.84;;;17.17;79.83
64687;BME280;51113;53.646;-113.674;2023-06-14T03:18:14;92267.84;;;17.17;78.97
64687;BME280;51113;53.646;-113.674;2023-06-14T03:20:43;92267.84;;;17.17;79.13
64687;BME280;51113;53.646;-113.674;2023-06-14T03:23:13;92262.59;;;17.17;78.35
64687;BME280;51113;53.646;-113.674;2023-06-14T03:25:42;92241.59;;;17.17;78.70
64687;BME280;51113;53.646;-113.674;2023-06-14T03:28:11;92250.13;;;17.14;77.91
64687;BME280;51113;53.646;-113.674;2023-06-14T03:30:40;92244.38;;;17.08;77.42
64687;BME280;51113;53.646;-113.674;2023-06-14T03:33:09;92229.72;;;17.07;77.20
64687;BME280;51113;53.646;-113.674;2023-06-14T03:35:38;92227.63;;;17.13;76.99
64687;BME280;51113;53.646;-113.674;2023-06-14T03:38:07;92218.22;;;17.12;76.13
64687;BME280;51113;53.646;-113.674;2023-06-14T03:40:35;92204.00;;;17.13;76.34
64687;BME280;51113;53.646;-113.674;2023-06-14T03:43:04;92204.00;;;17.13;76.54
64687;BME280;51113;53.646;-113.674;2023-06-14T03:45:33;92205.84;;;16.97;78.90
64687;BME280;51113;53.646;-113.674;2023-06-14T03:48:02;92199.13;;;16.84;79.55
64687;BME280;51113;53.646;-113.674;2023-06-14T03:50:31;92188.69;;;16.71;80.66
64687;BME280;51113;53.646;-113.674;2023-06-14T03:53:00;92179.53;;;16.65;80.38
64687;BME280;51113;53.646;-113.674;2023-06-14T03:55:29;92189.03;;;16.58;80.85
64687;BME280;51113;53.646;-113.674;2023-06-14T03:58:02;92196.47;;;16.56;81.06
64687;BME280;51113;53.646;-113.674;2023-06-14T04:00:31;92208.59;;;16.48;81.32
64687;BME280;51113;53.646;-113.674;2023-06-14T04:03:00;92198.78;;;16.45;80.71
64687;BME280;51113;53.646;-113.674;2023-06-14T04:05:31;92202.50;;;16.44;80.93
64687;BME280;51113;53.646;-113.674;2023-06-14T04:08:00;92203.16;;;16.41;80.61
64687;BME280;51113;53.646;-113.674;2023-06-14T04:10:29;92200.53;;;16.41;80.91
64687;BME280;51113;53.646;-113.674;2023-06-14T04:12:58;92197.72;;;16.34;81.23
64687;BME280;51113;53.646;-113.674;2023-06-14T04:15:27;92205.91;;;16.32;80.55
64687;BME280;51113;53.646;-113.674;2023-06-14T04:17:56;92202.09;;;16.30;80.98
64687;BME280;51113;53.646;-113.674;2023-06-14T04:20:25;92200.78;;;16.36;81.00
64687;BME280;51113;53.646;-113.674;2023-06-14T04:22:56;92197.41;;;16.35;80.64
64687;BME280;51113;53.646;-113.674;2023-06-14T04:25:25;92198.91;;;16.36;80.33
64687;BME280;51113;53.646;-113.674;2023-06-14T04:27:56;92190.50;;;16.43;79.50
64687;BME280;51113;53.646;-113.674;2023-06-14T04:30:26;92191.69;;;16.45;79.56
64687;BME280;51113;53.646;-113.674;2023-06-14T04:32:59;92199.03;;;16.40;80.44
64687;BME280;51113;53.646;-113.674;2023-06-14T04:35:28;92197.25;;;16.44;79.63
64687;BME280;51113;53.646;-113.674;2023-06-14T04:37:57;92190.72;;;16.38;79.57
64687;BME280;51113;53.646;-113.674;2023-06-14T04:40:26;92198.25;;;16.39;80.12
64687;BME280;51113;53.646;-113.674;2023-06-14T04:42:55;92189.72;;;16.42;80.26
64687;BME280;51113;53.646;-113.674;2023-06-14T04:45:24;92198.78;;;16.45;80.05
64687;BME280;51113;53.646;-113.674;2023-06-14T04:47:53;92202.84;;;16.42;79.91
64687;BME280;51113;53.646;-113.674;2023-06-14T04:50:26;92213.41;;;16.46;79.47
64687;BME280;51113;53.646;-113.674;2023-06-14T04:52:54;92242.25;;;16.46;79.87
64687;BME280;51113;53.646;-113.674;2023-06-14T04:55:24;92277.19;;;16.38;80.34
64687;BME280;51113;53.646;-113.674;2023-06-14T04:57:54;92279.28;;;16.32;80.47
64687;BME280;51113;53.646;-113.674;2023-06-14T05:00:23;92286.16;;;16.37;80.35
64687;BME280;51113;53.646;-113.674;2023-06-14T05:02:52;92289.22;;;16.27;83.00
64687;BME280;51113;53.646;-113.674;2023-06-14T05:05:21;92285.09;;;16.13;84.85
64687;BME280;51113;53.646;-113.674;2023-06-14T05:07:50;92274.16;;;16.11;85.79
64687;BME280;51113;53.646;-113.674;2023-06-14T05:10:19;92247.88;;;15.83;87.34
64687;BME280;51113;53.646;-113.674;2023-06-14T05:12:47;92249.72;;;15.83;87.19
64687;BME280;51113;53.646;-113.674;2023-06-14T05:15:17;92246.00;;;15.84;86.60
64687;BME280;51113;53.646;-113.674;2023-06-14T05:17:46;92246.44;;;15.62;87.42
64687;BME280;51113;53.646;-113.674;2023-06-14T05:20:22;92258.94;;;15.56;88.14
64687;BME280;51113;53.646;-113.674;2023-06-14T05:22:53;92257.50;;;15.46;88.74
64687;BME280;51113;53.646;-113.674;2023-06-14T05:25:22;92258.47;;;15.42;89.58
64687;BME280;51113;53.646;-113.674;2023-06-14T05:27:51;92249.75;;;15.38;89.71
64687;BME280;51113;53.646;-113.674;2023-06-14T05:30:20;92205.47;;;15.33;89.86
64687;BME280;51113;53.646;-113.674;2023-06-14T05:32:49;92195.78;;;15.33;90.25
64687;BME280;51113;53.646;-113.674;2023-06-14T05:35:18;92176.16;;;15.27;91.13
64687;BME280;51113;53.646;-113.674;2023-06-14T05:37:47;92144.00;;;15.27;91.39
64687;BME280;51113;53.646;-113.674;2023-06-14T05:40:16;92154.25;;;15.19;90.70
64687;BME280;51113;53.646;-113.674;2023-06-14T05:42:46;92161.00;;;15.21;91.83
64687;BME280;51113;53.646;-113.674;2023-06-14T05:45:15;92166.00;;;15.13;92.17
64687;BME280;51113;53.646;-113.674;2023-06-14T05:47:44;92173.28;;;15.08;92.78
64687;BME280;51113;53.646;-113.674;2023-06-14T05:50:13;92170.78;;;15.11;92.40
64687;BME280;51113;53.646;-113.674;2023-06-14T05:52:42;92160.66;;;15.10;92.95
64687;BME280;51113;53.646;-113.674;2023-06-14T05:55:11;92149.75;;;15.08;92.73
64687;BME280;51113;53.646;-113.674;2023-06-14T05:57:43;92141.34;;;15.02;92.40
64687;BME280;51113;53.646;-113.674;2023-06-14T06:00:12;92138.75;;;15.02;92.45
64687;BME280;51113;53.646;-113.674;2023-06-14T06:02:45;92126.53;;;14.94;92.47
64687;BME280;51113;53.646;-113.674;2023-06-14T06:05:16;92119.13;;;14.96;92.86
64687;BME280;51113;53.646;-113.674;2023-06-14T06:07:45;92120.09;;;14.92;92.87
64687;BME280;51113;53.646;-113.674;2023-06-14T06:10:14;92120.53;;;14.94;92.56
64687;BME280;51113;53.646;-113.674;2023-06-14T06:12:43;92107.47;;;14.94;92.13
64687;BME280;51113;53.646;-113.674;2023-06-14T06:15:12;92103.97;;;14.90;92.58
64687;BME280;51113;53.646;-113.674;2023-06-14T06:17:42;92107.34;;;14.90;92.41
64687;BME280;51113;53.646;-113.674;2023-06-14T06:20:23;92137.41;;;14.84;92.13
64687;BME280;51113;53.646;-113.674;2023-06-14T06:22:57;92159.81;;;14.73;92.68
64687;BME280;51113;53.646;-113.674;2023-06-14T06:25:27;92160.66;;;14.65;93.21
64687;BME280;51113;53.646;-113.674;2023-06-14T06:27:55;92178.06;;;14.61;93.12
64687;BME280;51113;53.646;-113.674;2023-06-14T06:30:25;92195.38;;;14.65;94.13
64687;BME280;51113;53.646;-113.674;2023-06-14T06:32:54;92201.38;;;14.45;93.70
64687;BME280;51113;53.646;-113.674;2023-06-14T06:35:24;92204.00;;;14.45;94.32
64687;BME280;51113;53.646;-113.674;2023-06-14T06:37:53;92192.91;;;14.48;94.64
64687;BME280;51113;53.646;-113.674;2023-06-14T06:40:21;92188.06;;;14.59;94.81
64687;BME280;51113;53.646;-113.674;2023-06-14T06:42:50;92182.63;;;14.64;94.85
64687;BME280;51113;53.646;-113.674;2023-06-14T06:45:19;92173.72;;;14.65;94.98
64687;BME280;51113;53.646;-113.674;2023-06-14T06:47:51;92163.81;;;14.70;95.06
64687;BME280;51113;53.646;-113.674;2023-06-14T06:50:20;92149.03;;;14.74;94.62
64687;BME280;51113;53.646;-113.674;2023-06-14T06:52:51;92148.69;;;14.76;94.63
64687;BME280;51113;53.646;-113.674;2023-06-14T06:55:21;92149.91;;;14.78;94.49
64687;BME280;51113;53.646;-113.674;2023-06-14T06:57:49;92151.44;;;14.79;94.43
64687;BME280;51113;53.646;-113.674;2023-06-14T07:00:20;92142.63;;;14.84;94.16
64687;BME280;51113;53.646;-113.674;2023-06-14T07:02:52;92150.78;;;14.82;94.02
64687;BME280;51113;53.646;-113.674;2023-06-14T07:05:23;92146.00;;;14.84;94.10
64687;BME280;51113;53.646;-113.674;2023-06-14T07:07:52;92142.63;;;14.84;93.89
64687;BME280;51113;53.646;-113.674;2023-06-14T07:10:24;92153.09;;;14.84;93.84
64687;BME280;51113;53.646;-113.674;2023-06-14T07:12:52;92155.69;;;14.84;93.92
64687;BME280;51113;53.646;-113.674;2023-06-14T07:15:21;92160.94;;;14.84;93.92
64687;BME280;51113;53.646;-113.674;2023-06-14T07:17:50;92174.75;;;14.84;93.91
64687;BME280;51113;53.646;-113.674;2023-06-14T07:20:19;92214.84;;;14.89;93.97
64687;BME280;51113;53.646;-113.674;2023-06-14T07:22:49;92277.41;;;14.94;94.06
64687;BME280;51113;53.646;-113.674;2023-06-14T07:25:18;92304.63;;;14.93;94.26
64687;BME280;51113;53.646;-113.674;2023-06-14T07:27:48;92281.88;;;14.93;94.30
64687;BME280;51113;53.646;-113.674;2023-06-14T07:30:17;92270.00;;;14.96;94.16
64687;BME280;51113;53.646;-113.674;2023-06-14T07:32:46;92270.00;;;14.96;94.72
64687;BME280;51113;53.646;-113.674;2023-06-14T07:35:15;92265.59;;;14.88;94.90
64687;BME280;51113;53.646;-113.674;2023-06-14T07:37:44;92258.41;;;14.84;94.98
64687;BME280;51113;53.646;-113.674;2023-06-14T07:40:15;92242.72;;;14.84;95.36
64687;BME280;51113;53.646;-113.674;2023-06-14T07:42:43;92232.91;;;14.81;95.21
64687;BME280;51113;53.646;-113.674;2023-06-14T07:45:14;92231.50;;;14.84;95.42
64687;BME280;51113;53.646;-113.674;2023-06-14T07:47:43;92217.09;;;14.78;95.65
64687;BME280;51113;53.646;-113.674;2023-06-14T07:50:13;92207.41;;;14.78;95.66
64687;BME280;51113;53.646;-113.674;2023-06-14T07:52:42;92197.47;;;14.72;95.73
64687;BME280;51113;53.646;-113.674;2023-06-14T07:55:11;92192.13;;;14.68;95.79
64687;BME280;51113;53.646;-113.674;2023-06-14T07:57:41;92188.00;;;14.67;95.67
64687;BME280;51113;53.646;-113.674;2023-06-14T08:00:12;92192.78;;;14.65;95.72
64687;BME280;51113;53.646;-113.674;2023-06-14T08:02:44;92191.88;;;14.61;95.63
64687;BME280;51113;53.646;-113.674;2023-06-14T08:05:13;92197.44;;;14.60;95.62
64687;BME280;51113;53.646;-113.674;2023-06-14T08:07:43;92187.94;;;14.55;95.68
64687;BME280;51113;53.646;-113.674;2023-06-14T08:10:11;92172.59;;;14.53;95.65
64687;BME280;51113;53.646;-113.674;2023-06-14T08:12:41;92161.56;;;14.48;95.86
64687;BME280;51113;53.646;-113.674;2023-06-14T08:15:10;92163.75;;;14.46;95.72
64687;BME280;51113;53.646;-113.674;2023-06-14T08:17:43;92158.06;;;14.44;95.99
64687;BME280;51113;53.646;-113.674;2023-06-14T08:20:13;92146.69;;;14.40;96.10
64687;BME280;51113;53.646;-113.674;2023-06-14T08:22:45;92138.41;;;14.38;95.70
64687;BME280;51113;53.646;-113.674;2023-06-14T08:25:16;92137.09;;;14.32;96.16
64687;BME280;51113;53.646;-113.674;2023-06-14T08:27:46;92126.97;;;14.30;96.07
64687;BME280;51113;53.646;-113.674;2023-06-14T08:30:15;92138.25;;;14.22;95.96
64687;BME280;51113;53.646;-113.674;2023-06-14T08:32:45;92160.66;;;14.23;95.99
64687;BME280;51113;53.646;-113.674;2023-06-14T08:35:24;92153.78;;;14.18;96.04
64687;BME280;51113;53.646;-113.674;2023-06-14T08:37:53;92131.25;;;14.14;96.34
64687;BME280;51113;53.646;-113.674;2023-06-14T08:40:23;92132.47;;;14.16;96.42
64687;BME280;51113;53.646;-113.674;2023-06-14T08:42:53;92139.41;;;14.12;96.46
64687;BME280;51113;53.646;-113.674;2023-06-14T08:45:24;92143.97;;;14.15;96.58
64687;BME280;51113;53.646;-113.674;2023-06-14T08:47:55;92155.31;;;14.19;96.73
64687;BME280;51113;53.646;-113.674;2023-06-14T08:50:29;92151.19;;;14.18;96.78
64687;BME280;51113;53.646;-113.674;2023-06-14T08:53:02;92164.81;;;14.24;96.86
64687;BME280;51113;53.646;-113.674;2023-06-14T08:55:31;92168.19;;;14.25;96.85
64687;BME280;51113;53.646;-113.674;2023-06-14T08:58:04;92159.25;;;14.26;96.78
64687;BME280;51113;53.646;-113.674;2023-06-14T09:00:33;92166.78;;;14.27;96.88
64687;BME280;51113;53.646;-113.674;2023-06-14T09:03:03;92158.50;;;14.25;96.63
64687;BME280;51113;53.646;-113.674;2023-06-14T09:05:36;92156.66;;;14.26;96.68
64687;BME280;51113;53.646;-113.674;2023-06-14T09:08:05;92150.16;;;14.32;96.89
64687;BME280;51113;53.646;-113.674;2023-06-14T09:10:35;92147.53;;;14.32;96.89
64687;BME280;51113;53.646;-113.674;2023-06-14T09:13:05;92137.53;;;14.34;96.75
64687;BME280;51113;53.646;-113.674;2023-06-14T09:15:35;92135.38;;;14.36;96.84
64687;BME280;51113;53.646;-113.674;2023-06-14T09:18:04;92127.22;;;14.37;97.01
64687;BME280;51113;53.646;-113.674;2023-06-14T09:20:34;92125.81;;;14.40;96.78
64687;BME280;51113;53.646;-113.674;2023-06-14T09:23:04;92139.34;;;14.42;96.95
64687;BME280;51113;53.646;-113.674;2023-06-14T09:25:46;92136.72;;;14.42;96.82
64687;BME280;51113;53.646;-113.674;2023-06-14T09:28:15;92132.72;;;14.44;96.87
64687;BME280;51113;53.646;-113.674;2023-06-14T09:30:44;92135.94;;;14.41;96.59
64687;BME280;51113;53.646;-113.674;2023-06-14T09:33:17;92145.00;;;14.44;96.42
64687;BME280;51113;53.646;-113.674;2023-06-14T09:35:50;92144.84;;;14.40;96.63
64687;BME280;51113;53.646;-113.674;2023-06-14T09:38:19;92145.50;;;14.37;96.32
64687;BME280;51113;53.646;-113.674;2023-06-14T09:40:49;92143.84;;;14.33;96.17
64687;BME280;51113;53.646;-113.674;2023-06-14T09:43:19;92147.84;;;14.30;96.01
64687;BME280;51113;53.646;-113.674;2023-06-14T09:45:50;92152.63;;;14.28;96.05
64687;BME280;51113;53.646;-113.674;2023-06-14T09:48:20;92157.84;;;14.28;95.96
64687;BME280;51113;53.646;-113.674;2023-06-14T09:50:50;92150.78;;;14.29;95.90
64687;BME280;51113;53.646;-113.674;2023-06-14T09:53:21;92152.19;;;14.26;95.61
64687;BME280;51113;53.646;-113.674;2023-06-14T09:55:54;92167.53;;;14.28;95.72
64687;BME280;51113;53.646;-113.674;2023-06-14T09:58:26;92170.59;;;14.30;95.97
64687;BME280;51113;53.646;-113.674;2023-06-14T10:00:56;92165.88;;;14.23;95.88
64687;BME280;51113;53.646;-113.674;2023-06-14T10:03:28;92167.09;;;14.26;95.83
64687;BME280;51113;53.646;-113.674;2023-06-14T10:06:16;92161.44;;;14.23;95.63
64687;BME280;51113;53.646;-113.674;2023-06-14T10:08:45;92159.91;;;14.22;95.75
64687;BME280;51113;53.646;-113.674;2023-06-14T10:11:17;92148.38;;;14.23;96.39
64687;BME280;51113;53.646;-113.674;2023-06-14T10:13:46;92139.00;;;14.22;96.10
64687;BME280;51113;53.646;-113.674;2023-06-14T10:16:21;92127.69;;;14.18;96.27
64687;BME280;51113;53.646;-113.674;2023-06-14T10:19:11;92102.97;;;14.16;96.14
64687;BME280;51113;53.646;-113.674;2023-06-14T10:22:02;92094.69;;;14.14;96.59
64687;BME280;51113;53.646;-113.674;2023-06-14T10:24:40;92101.75;;;14.13;96.67
64687;BME280;51113;53.646;-113.674;2023-06-14T10:27:13;92111.31;;;14.09;96.74
64687;BME280;51113;53.646;-113.674;2023-06-14T10:30:07;92117.75;;;14.12;96.78
64687;BME280;51113;53.646;-113.674;2023-06-14T10:33:05;92107.81;;;14.05;96.77
64687;BME280;51113;53.646;-113.674;2023-06-14T10:35:38;92102.47;;;14.02;97.03
64687;BME280;51113;53.646;-113.674;2023-06-14T10:38:13;92100.69;;;13.94;96.80
64687;BME280;51113;53.646;-113.674;2023-06-14T10:40:44;92114.19;;;13.96;97.23
64687;BME280;51113;53.646;-113.674;2023-06-14T10:43:24;92110.69;;;13.92;97.45
64687;BME280;51113;53.646;-113.674;2023-06-14T10:46:19;92128.63;;;13.93;97.54
64687;BME280;51113;53.646;-113.674;2023-06-14T10:48:57;92123.88;;;13.95;97.50
64687;BME280;51113;53.646;-113.674;2023-06-14T10:51:29;92124.94;;;13.94;97.36
64687;BME280;51113;53.646;-113.674;2023-06-14T10:53:59;92130.16;;;13.94;97.47
64687;BME280;51113;53.646;-113.674;2023-06-14T10:56:29;92136.03;;;13.91;97.44
64687;BME280;51113;53.646;-113.674;2023-06-14T10:59:04;92131.88;;;13.90;97.50
64687;BME280;51113;53.646;-113.674;2023-06-14T11:01:41;92126.53;;;13.86;97.90
64687;BME280;51113;53.646;-113.674;2023-06-14T11:04:17;92127.94;;;13.84;97.65
64687;BME280;51113;53.646;-113.674;2023-06-14T11:06:50;92132.06;;;13.85;98.13
64687;BME280;51113;53.646;-113.674;2023-06-14T11:09:47;92112.03;;;13.77;98.10
64687;BME280;51113;53.646;-113.674;2023-06-14T11:12:19;92138.81;;;13.86;97.79
64687;BME280;51113;53.646;-113.674;2023-06-14T11:14:49;92139.91;;;13.85;98.42
64687;BME280;51113;53.646;-113.674;2023-06-14T11:17:18;92140.97;;;13.84;98.31
64687;BME280;51113;53.646;-113.674;2023-06-14T11:19:47;92140.34;;;13.87;98.21
64687;BME280;51113;53.646;-113.674;2023-06-14T11:22:16;92136.66;;;13.88;98.37
64687;BME280;51113;53.646;-113.674;2023-06-14T11:24:45;92135.91;;;13.87;98.47
64687;BME280;51113;53.646;-113.674;2023-06-14T11:27:14;92131.75;;;13.86;98.42
64687;BME280;51113;53.646;-113.674;2023-06-14T11:29:49;92135.13;;;13.87;98.42
64687;BME280;51113;53.646;-113.674;2023-06-14T11:32:18;92131.44;;;13.88;98.37
64687;BME280;51113;53.646;-113.674;2023-06-14T11:34:47;92138.19;;;13.89;98.63
64687;BME280;51113;53.646;-113.674;2023-06-14T11:37:16;92133.28;;;13.87;98.69
64687;BME280;51113;53.646;-113.674;2023-06-14T11:39:45;92138.63;;;13.91;98.49
64687;BME280;51113;53.646;-113.674;2023-06-14T11:42:17;92138.94;;;13.89;98.54
64687;BME280;51113;53.646;-113.674;2023-06-14T11:44:46;92140.47;;;13.90;98.47
64687;BME280;51113;53.646;-113.674;2023-06-14T11:47:15;92137.88;;;13.90;98.64
64687;BME280;51113;53.646;-113.674;2023-06-14T11:49:44;92137.56;;;13.92;98.70
64687;BME280;51113;53.646;-113.674;2023-06-14T11:52:14;92137.09;;;13.90;98.78
64687;BME280;51113;53.646;-113.674;2023-06-14T11:54:43;92136.78;;;13.92;98.88
64687;BME280;51113;53.646;-113.674;2023-06-14T11:57:12;92140.47;;;13.90;98.92
64687;BME280;51113;53.646;-113.674;2023-06-14T11:59:41;92142.31;;;13.90;98.68
64687;BME280;51113;53.646;-113.674;2023-06-14T12:02:16;92145.38;;;13.92;99.01
64687;BME280;51113;53.646;-113.674;2023-06-14T12:04:48;92145.25;;;13.88;98.84
64687;BME280;51113;53.646;-113.674;2023-06-14T12:07:18;92145.56;;;13.87;99.05
64687;BME280;51113;53.646;-113.674;2023-06-14T12:12:24;92151.25;;;13.89;98.79
64687;BME280;51113;53.646;-113.674;2023-06-14T12:14:56;92146.78;;;13.89;98.98
64687;BME280;51113;53.646;-113.674;2023-06-14T12:17:25;92149.06;;;13.91;99.02
64687;BME280;51113;53.646;-113.674;2023-06-14T12:19:56;92155.56;;;13.85;99.05
64687;BME280;51113;53.646;-113.674;2023-06-14T12:22:25;92151.88;;;13.86;99.06
64687;BME280;51113;53.646;-113.674;2023-06-14T12:24:56;92152.31;;;13.88;99.26
64687;BME280;51113;53.646;-113.674;2023-06-14T12:27:25;92152.06;;;13.81;99.08
64687;BME280;51113;53.646;-113.674;2023-06-14T12:30:01;92155.44;;;13.81;99.17
64687;BME280;51113;53.646;-113.674;2023-06-14T12:32:30;92150.84;;;13.78;99.21
64687;BME280;51113;53.646;-113.674;2023-06-14T12:34:59;92157.28;;;13.81;99.30
64687;BME280;51113;53.646;-113.674;2023-06-14T12:37:28;92161.16;;;13.75;99.07
64687;BME280;51113;53.646;-113.674;2023-06-14T12:39:57;92163.31;;;13.73;99.27
64687;BME280;51113;53.646;-113.674;2023-06-14T12:42:28;92159.34;;;13.67;99.14
64687;BME280;51113;53.646;-113.674;2023-06-14T12:44:57;92156.56;;;13.72;99.46
64687;BME280;51113;53.646;-113.674;2023-06-14T12:47:26;92156.25;;;13.73;99.38
64687;BME280;51113;53.646;-113.674;2023-06-14T12:49:55;92164.22;;;13.77;99.51
64687;BME280;51113;53.646;-113.674;2023-06-14T12:52:24;92162.94;;;13.83;99.40